No particular awareness of the weather is required.    There are no Weather-warnings


Meteo18 Weather Cam more information Meteo18 Weather Cam


Thunder radar more information blitzortung!


Rain radar more information rain snow radar


Visit our other weather sites:

Template documentation
and downloads

And another site



Weather Underground History page Text

Daily Summary for January 14, 2018 Units:  English    Metric   Both
« Previous Day
Next Day »
Daily Weekly Monthly Yearly Custom
  High: Low: Average:
Temperature: TemperatureC °F 1.2 °F 4.8 °F
Dew Point: DewpointC °F 0.3 °F 3 °F
Humidity: Humidity % 72 % 88 %
Wind Speed: WindSpeedKMH mph 0.0 mph 0.9 mph
Wind Gust: WindSpeedGustKMH mph - -
Wind:- - SSW
Pressure: PressurehPa in 1015.5 in -
Precipitation: 0.0 in    
Historical Graphs
 
 
Tabular Data for January 14, 2018
Time Temperature Dew Point Pressure Wind Wind Speed Wind Gust Humidity Rainfall Rate (Hourly)
TemperatureC °F DewpointC °F PressurehPa in Calm     Humidity % HourlyPrecipMM in
00:05 2.5 °F 1.5 °F 1016.1 in Calm     93 % 0.0 in
00:11 2.5 °F 1.5 °F 1016.1 in Calm     93 % 0.0 in
00:17 2.4 °F 1.4 °F 1016.1 in Calm     93 % 0.0 in
00:29 2.0 °F 1.1 °F 1016.1 in Calm     94 % 0.0 in
00:35 1.9 °F 1.0 °F 1015.8 in Calm     94 % 0.0 in
00:43 1.8 °F 0.9 °F 1015.8 in Calm   1.6 mph 94 % 0.0 in
00:51 1.8 °F 0.9 °F 1015.8 in Calm   1.6 mph 94 % 0.0 in
01:03 1.8 °F 0.9 °F 1015.8 in WNW 1.4 mph 1.6 mph 94 % 0.0 in
01:09 1.9 °F 1.0 °F 1015.8 in Calm   1.6 mph 94 % 0.0 in
01:15 1.8 °F 1.1 °F 1015.8 in NNW 1.4 mph 3.2 mph 95 % 0.0 in
01:21 2.0 °F 1.3 °F 1015.8 in Calm   1.6 mph 95 % 0.0 in
01:27 2.1 °F 1.2 °F 1015.8 in Calm   1.6 mph 94 % 0.0 in
01:33 2.1 °F 1.2 °F 1015.8 in Calm   1.6 mph 94 % 0.0 in
01:39 1.9 °F 1.0 °F 1015.5 in Calm     94 % 0.0 in
01:45 2.0 °F 1.1 °F 1015.5 in Calm     94 % 0.0 in
01:57 1.9 °F 1.0 °F 1015.5 in Calm     94 % 0.0 in
02:03 1.9 °F 1.0 °F 1015.5 in Calm     94 % 0.0 in
02:09 1.9 °F 1.0 °F 1015.5 in Calm     94 % 0.0 in
02:15 1.9 °F 1.2 °F 1015.5 in NNW 1.4 mph 1.6 mph 95 % 0.0 in
02:21 2.0 °F 1.1 °F 1015.5 in Calm   1.6 mph 94 % 0.0 in
02:27 1.9 °F 1.0 °F 1015.5 in Calm     94 % 0.0 in
02:33 1.9 °F 1.0 °F 1015.5 in Calm     94 % 0.0 in
02:39 1.9 °F 1.0 °F 1015.5 in NNW 1.4 mph 1.6 mph 94 % 0.0 in
02:45 1.9 °F 1.0 °F 1015.5 in Calm     94 % 0.0 in
02:51 1.9 °F 1.0 °F 1015.5 in Calm   1.6 mph 94 % 0.0 in
02:57 1.9 °F 1.0 °F 1015.5 in Calm   1.6 mph 94 % 0.0 in
03:03 2.1 °F 1.2 °F 1015.5 in Calm   1.6 mph 94 % 0.0 in
03:15 1.7 °F 0.8 °F 1015.5 in NNE 1.4 mph 1.6 mph 94 % 0.0 in
03:21 1.8 °F 1.1 °F 1015.5 in NNE 1.4 mph 3.2 mph 95 % 0.0 in
03:27 1.9 °F 1.0 °F 1015.5 in Calm     94 % 0.0 in
03:33 1.9 °F 1.0 °F 1015.5 in Calm     94 % 0.0 in
03:39 1.8 °F 0.9 °F 1015.5 in Calm   1.6 mph 94 % 0.0 in
03:45 1.9 °F 1.0 °F 1015.5 in Calm     94 % 0.0 in
03:52 1.9 °F 1.0 °F 1015.5 in Calm     94 % 0.0 in
03:58 1.9 °F 1.0 °F 1015.5 in NNW 1.4 mph 1.6 mph 94 % 0.0 in
04:04 1.9 °F 1.0 °F 1015.5 in NNW 1.4 mph 1.6 mph 94 % 0.0 in
04:10 1.8 °F 0.9 °F 1015.5 in Calm     94 % 0.0 in
04:16 1.8 °F 0.9 °F 1015.5 in Calm     94 % 0.0 in
04:22 1.7 °F 0.7 °F 1015.5 in Calm   1.6 mph 93 % 0.0 in
04:28 1.7 °F 0.7 °F 1015.5 in Calm   1.6 mph 93 % 0.0 in
04:34 1.6 °F 0.7 °F 1015.5 in Calm     94 % 0.0 in
04:40 1.6 °F 0.6 °F 1015.5 in Calm   1.6 mph 93 % 0.0 in
04:46 1.7 °F 0.8 °F 1015.5 in Calm   1.6 mph 94 % 0.0 in
04:52 1.7 °F 0.8 °F 1015.5 in Calm     94 % 0.0 in
04:58 1.4 °F 0.4 °F 1015.5 in Calm   1.6 mph 93 % 0.0 in
05:04 1.2 °F 0.3 °F 1015.5 in WNW 1.4 mph 1.6 mph 94 % 0.0 in
05:10 1.2 °F 0.5 °F 1015.5 in Calm   1.6 mph 95 % 0.0 in
05:22 1.5 °F 0.9 °F 1015.5 in Calm   1.6 mph 96 % 0.0 in
05:28 1.3 °F 0.4 °F 1015.5 in Calm   1.6 mph 94 % 0.0 in
05:34 1.4 °F 0.7 °F 1015.5 in NW 1.4 mph 1.6 mph 95 % 0.0 in
05:40 1.6 °F 0.9 °F 1015.5 in Calm   1.6 mph 95 % 0.0 in
05:47 1.4 °F 0.5 °F 1015.5 in Calm   1.6 mph 94 % 0.0 in
05:59 1.4 °F 0.7 °F 1015.5 in Calm   1.6 mph 95 % 0.0 in
06:05 1.3 °F 0.4 °F 1015.5 in NNW 1.4 mph 1.6 mph 94 % 0.0 in
06:11 1.4 °F 0.7 °F 1015.5 in North 1.4 mph 1.6 mph 95 % 0.0 in
06:17 1.5 °F 0.8 °F 1015.8 in Calm   1.6 mph 95 % 0.0 in
06:23 1.4 °F 0.5 °F 1015.8 in Calm   1.6 mph 94 % 0.0 in
06:29 1.3 °F 0.4 °F 1015.8 in Calm   1.6 mph 94 % 0.0 in
06:35 1.3 °F 0.4 °F 1015.8 in North 1.4 mph 3.2 mph 94 % 0.0 in
06:41 1.4 °F 0.7 °F 1015.8 in North 1.4 mph 3.2 mph 95 % 0.0 in
06:47 1.6 °F 0.9 °F 1015.8 in NNW 1.4 mph 3.2 mph 95 % 0.0 in
06:53 1.6 °F 0.7 °F 1015.8 in Calm   1.6 mph 94 % 0.0 in
06:59 1.4 °F 0.5 °F 1015.8 in WNW 1.4 mph 1.6 mph 94 % 0.0 in
07:07 1.3 °F 0.4 °F 1015.5 in WNW 1.4 mph 3.2 mph 94 % 0.0 in
07:13 1.3 °F 0.6 °F 1015.5 in Calm   1.6 mph 95 % 0.0 in
07:19 1.7 °F 1.0 °F 1015.5 in Calm     95 % 0.0 in
07:25 1.5 °F 0.6 °F 1015.5 in Calm   1.6 mph 94 % 0.0 in
07:31 1.4 °F 0.5 °F 1015.5 in NW 1.4 mph 1.6 mph 94 % 0.0 in
07:37 1.5 °F 0.6 °F 1015.8 in North 1.4 mph 3.2 mph 94 % 0.0 in
07:43 1.8 °F 0.9 °F 1015.8 in Calm   1.6 mph 94 % 0.0 in
07:49 1.7 °F 0.7 °F 1015.8 in Calm   1.6 mph 93 % 0.0 in
07:55 1.6 °F 0.6 °F 1016.1 in Calm     93 % 0.0 in
08:05 1.7 °F 0.8 °F 1016.1 in NNE 1.4 mph 3.2 mph 94 % 0.0 in
08:17 1.7 °F 0.8 °F 1016.1 in Calm   1.6 mph 94 % 0.0 in
08:30 1.8 °F 0.8 °F 1016.1 in Calm     93 % 0.0 in
08:36 1.8 °F 0.8 °F 1016.1 in Calm     93 % 0.0 in
08:42 1.9 °F 0.9 °F 1016.5 in Calm     93 % 0.0 in
08:46 1.8 °F 0.8 °F 1016.5 in NNW 1.4 mph 1.6 mph 93 % 0.0 in
08:52 1.9 °F 0.9 °F 1016.5 in NNW 1.4 mph 1.6 mph 93 % 0.0 in
08:58 2.0 °F 1.0 °F 1016.5 in Calm   1.6 mph 93 % 0.0 in
09:04 2.0 °F 0.8 °F 1016.5 in NNW 1.4 mph 1.6 mph 92 % 0.0 in
09:10 1.8 °F 0.8 °F 1016.5 in Calm     93 % 0.0 in
09:16 1.8 °F 0.8 °F 1016.5 in Calm   1.6 mph 93 % 0.0 in
09:22 1.9 °F 1.0 °F 1016.8 in Calm     94 % 0.0 in
09:30 2.3 °F 1.4 °F 1016.8 in Calm     94 % 0.0 in
09:36 2.4 °F 1.4 °F 1016.8 in Calm     93 % 0.0 in
09:42 2.4 °F 1.2 °F 1016.8 in North 1.4 mph 1.6 mph 92 % 0.0 in
09:48 2.4 °F 1.2 °F 1016.8 in North 1.4 mph 3.2 mph 92 % 0.0 in
09:54 2.4 °F 1.2 °F 1016.8 in North 1.4 mph 1.6 mph 92 % 0.0 in
10:00 2.6 °F 1.4 °F 1017.2 in Calm     92 % 0.0 in
10:10 2.8 °F 1.6 °F 1017.2 in Calm     92 % 0.0 in
10:16 3.1 °F 1.9 °F 1017.2 in Calm     92 % 0.0 in
10:26 3.5 °F 2.2 °F 1017.2 in Calm     91 % 0.0 in
10:39 4.1 °F 2.5 °F 1017.5 in Calm     89 % 0.0 in
10:45 4.4 °F 2.6 °F 1017.5 in Calm     88 % 0.0 in
10:51 4.9 °F 3.1 °F 1017.5 in Calm     88 % 0.0 in
10:57 5.6 °F 3.4 °F 1017.5 in Calm   1.6 mph 86 % 0.0 in
11:05 5.8 °F 3.1 °F 1017.5 in Calm     83 % 0.0 in
11:19 6.1 °F 3.4 °F 1017.5 in South 1.4 mph 1.6 mph 83 % 0.0 in
11:25 6.2 °F 3.4 °F 1017.8 in Calm   1.6 mph 82 % 0.0 in
11:31 6.0 °F 3.2 °F 1017.8 in Calm   1.6 mph 82 % 0.0 in
11:37 5.9 °F 3.2 °F 1017.8 in East 1.4 mph 1.6 mph 83 % 0.0 in
11:43 5.8 °F 3.3 °F 1017.8 in Calm   1.6 mph 84 % 0.0 in
11:49 6.0 °F 3.5 °F 1017.5 in SSE 1.4 mph 1.6 mph 84 % 0.0 in
11:55 6.3 °F 3.8 °F 1017.5 in Calm   1.6 mph 84 % 0.0 in
12:01 6.6 °F 3.9 °F 1017.5 in Calm     83 % 0.0 in
12:07 6.7 °F 4.0 °F 1017.5 in Calm   1.6 mph 83 % 0.0 in
12:13 7.1 °F 4.4 °F 1017.5 in Calm   1.6 mph 83 % 0.0 in
12:19 7.4 °F 4.4 °F 1017.5 in Calm   1.6 mph 81 % 0.0 in
12:25 7.7 °F 5.0 °F 1017.2 in Calm   1.6 mph 83 % 0.0 in
12:31 8.0 °F 4.9 °F 1017.5 in SSW 1.4 mph 1.6 mph 81 % 0.0 in
12:37 8.2 °F 5.1 °F 1017.2 in Calm   3.2 mph 81 % 0.0 in
12:43 8.4 °F 5.3 °F 1017.2 in Calm   3.2 mph 81 % 0.0 in
12:49 8.7 °F 5.6 °F 1017.2 in SW 4.7 mph 4.8 mph 81 % 0.0 in
12:55 8.9 °F 5.8 °F 1017.2 in South 4.7 mph 9.7 mph 81 % 0.0 in
13:01 9.1 °F 6.0 °F 1017.2 in SSE 4.7 mph 8.0 mph 81 % 0.0 in
13:13 9.1 °F 5.5 °F 1017.2 in South 1.4 mph 11.3 mph 78 % 0.0 in
13:19 9.2 °F 5.7 °F 1016.8 in SSW 3.2 mph 6.4 mph 79 % 0.0 in
13:25 9.2 °F 5.7 °F 1016.8 in South 1.4 mph 11.3 mph 79 % 0.0 in
13:31 9.4 °F 6.3 °F 1016.8 in SSW 3.2 mph 8.0 mph 81 % 0.0 in
13:37 9.3 °F 5.5 °F 1016.8 in SE 1.4 mph 11.3 mph 77 % 0.0 in
13:43 9.4 °F 5.8 °F 1016.8 in SSW 1.4 mph 8.0 mph 78 % 0.0 in
13:49 9.5 °F 5.9 °F 1016.8 in SSW 1.4 mph 6.4 mph 78 % 0.0 in
14:01 9.6 °F 6.0 °F 1016.8 in SW 4.7 mph 6.4 mph 78 % 0.0 in
14:07 9.8 °F 5.8 °F 1016.8 in SSE 1.4 mph 11.3 mph 76 % 0.0 in
14:13 9.8 °F 5.6 °F 1016.8 in South 4.7 mph 6.4 mph 75 % 0.0 in
14:19 9.9 °F 5.9 °F 1016.8 in South 3.2 mph 9.7 mph 76 % 0.0 in
14:25 10.0 °F 5.8 °F 1016.8 in SSW 9.7 mph 11.3 mph 75 % 0.0 in
14:31 9.9 °F 5.5 °F 1016.8 in South 4.7 mph 11.3 mph 74 % 0.0 in
14:37 9.7 °F 5.5 °F 1016.8 in SW 7.9 mph 9.7 mph 75 % 0.0 in
14:43 9.8 °F 5.8 °F 1016.8 in SSE 3.2 mph 6.4 mph 76 % 0.0 in
14:49 9.9 °F 5.7 °F 1016.8 in SW 11.1 mph 11.3 mph 75 % 0.0 in
14:57 9.8 °F 5.8 °F 1016.8 in SSW 6.4 mph 12.9 mph 76 % 0.0 in
15:03 9.8 °F 5.8 °F 1016.8 in SW 7.9 mph 9.7 mph 76 % 0.0 in
15:09 10.0 °F 5.8 °F 1017.2 in SW 6.4 mph 6.4 mph 75 % 0.0 in
15:15 10.1 °F 5.5 °F 1017.2 in SSW 3.2 mph 9.7 mph 73 % 0.0 in
15:21 10.2 °F 5.6 °F 1017.2 in SSW 4.7 mph 8.0 mph 73 % 0.0 in
15:27 10.3 °F 5.9 °F 1017.2 in SSW 1.4 mph 6.4 mph 74 % 0.0 in
15:33 10.4 °F 5.6 °F 1017.2 in South 4.7 mph 6.4 mph 72 % 0.0 in
15:39 10.4 °F 6.0 °F 1017.2 in SE 3.2 mph 4.8 mph 74 % 0.0 in
15:45 10.3 °F 5.7 °F 1017.2 in SW 4.7 mph 6.4 mph 73 % 0.0 in
15:57 10.5 °F 6.1 °F 1017.2 in SW 1.4 mph 4.8 mph 74 % 0.0 in
16:03 10.6 °F 5.8 °F 1017.2 in SSW 1.4 mph 4.8 mph 72 % 0.0 in
16:11 10.7 °F 6.1 °F 1017.2 in Calm   1.6 mph 73 % 0.0 in
16:17 10.8 °F 6.2 °F 1017.2 in Calm   1.6 mph 73 % 0.0 in
16:23 10.9 °F 6.3 °F 1017.2 in Calm   1.6 mph 73 % 0.0 in
16:29 10.8 °F 6.0 °F 1017.5 in Calm     72 % 0.0 in
16:35 10.4 °F 6.0 °F 1017.5 in SE 1.4 mph 3.2 mph 74 % 0.0 in
16:45 9.9 °F 5.7 °F 1017.5 in Calm   3.2 mph 75 % 0.0 in
16:52 9.8 °F 5.6 °F 1017.5 in SE 1.4 mph 1.6 mph 75 % 0.0 in
16:57 9.7 °F 5.5 °F 1017.5 in Calm   1.6 mph 75 % 0.0 in
17:04 9.4 °F 5.4 °F 1017.5 in Calm     76 % 0.0 in
17:10 8.9 °F 5.3 °F 1017.5 in Calm     78 % 0.0 in
17:22 8.1 °F 5.0 °F 1017.8 in Calm     81 % 0.0 in
17:28 7.9 °F 4.8 °F 1017.8 in Calm     81 % 0.0 in
17:34 7.7 °F 4.8 °F 1017.8 in Calm     82 % 0.0 in
17:40 7.6 °F 4.7 °F 1017.8 in Calm     82 % 0.0 in
17:46 7.3 °F 4.4 °F 1017.8 in Calm     82 % 0.0 in
17:52 6.9 °F 4.2 °F 1017.8 in Calm     83 % 0.0 in
17:58 6.7 °F 4.4 °F 1018.2 in Calm     85 % 0.0 in
18:10 6.5 °F 4.3 °F 1018.2 in Calm     86 % 0.0 in
18:22 6.3 °F 4.1 °F 1018.5 in Calm     86 % 0.0 in
18:34 6.2 °F 4.2 °F 1018.5 in Calm     87 % 0.0 in
18:40 6.0 °F 4.0 °F 1018.5 in Calm     87 % 0.0 in
18:46 6.1 °F 4.3 °F 1018.5 in Calm     88 % 0.0 in
19:00 6.1 °F 4.3 °F 1018.5 in Calm     88 % 0.0 in
19:06 5.8 °F 4.0 °F 1018.8 in Calm     88 % 0.0 in
19:12 5.6 °F 3.9 °F 1018.8 in Calm     89 % 0.0 in
19:19 5.7 °F 4.0 °F 1018.8 in Calm     89 % 0.0 in
19:31 5.6 °F 4.1 °F 1018.8 in NNW 1.4 mph 1.6 mph 90 % 0.0 in
19:43 5.3 °F 3.6 °F 1018.8 in Calm     89 % 0.0 in
19:49 4.9 °F 3.4 °F 1019.2 in Calm   1.6 mph 90 % 0.0 in
19:55 4.7 °F 3.4 °F 1019.2 in WNW 1.4 mph 1.6 mph 91 % 0.0 in
20:01 4.6 °F 3.4 °F 1019.2 in Calm   1.6 mph 92 % 0.0 in
20:15 4.9 °F 3.7 °F 1019.2 in Calm     92 % 0.0 in
20:21 4.9 °F 3.9 °F 1019.2 in Calm     93 % 0.0 in
20:27 4.8 °F 3.6 °F 1019.2 in Calm   1.6 mph 92 % 0.0 in
20:33 4.8 °F 3.8 °F 1019.5 in Calm     93 % 0.0 in
20:39 4.8 °F 3.6 °F 1019.5 in Calm   1.6 mph 92 % 0.0 in
20:45 4.9 °F 3.9 °F 1019.5 in Calm     93 % 0.0 in
20:51 4.8 °F 3.6 °F 1019.5 in North 4.7 mph 4.8 mph 92 % 0.0 in
20:57 4.5 °F 3.3 °F 1019.5 in North 1.4 mph 3.2 mph 92 % 0.0 in
21:03 4.8 °F 3.9 °F 1019.9 in NNW 1.4 mph 1.6 mph 94 % 0.0 in
21:09 4.8 °F 3.8 °F 1019.9 in NW 1.4 mph 3.2 mph 93 % 0.0 in
21:21 5.0 °F 4.0 °F 1020.2 in Calm     93 % 0.0 in
21:27 5.3 °F 4.4 °F 1019.9 in Calm   1.6 mph 94 % 0.0 in
21:35 5.6 °F 4.4 °F 1019.9 in Calm     92 % 0.0 in
21:41 5.5 °F 4.3 °F 1019.9 in Calm     92 % 0.0 in
21:47 5.3 °F 4.0 °F 1019.9 in Calm   1.6 mph 91 % 0.0 in
21:53 5.4 °F 4.2 °F 1019.9 in Calm     92 % 0.0 in
21:59 5.3 °F 4.0 °F 1019.9 in Calm   1.6 mph 91 % 0.0 in
22:05 5.2 °F 4.0 °F 1019.9 in Calm     92 % 0.0 in
22:11 5.1 °F 3.9 °F 1019.9 in Calm     92 % 0.0 in
22:17 5.1 °F 4.1 °F 1019.9 in Calm     93 % 0.0 in
22:23 5.4 °F 4.4 °F 1019.9 in Calm   1.6 mph 93 % 0.0 in
22:29 5.7 °F 4.5 °F 1019.9 in Calm   1.6 mph 92 % 0.0 in
22:35 5.7 °F 4.5 °F 1019.9 in Calm   1.6 mph 92 % 0.0 in
22:41 5.8 °F 4.4 °F 1019.9 in Calm     91 % 0.0 in
22:47 5.8 °F 4.4 °F 1019.9 in Calm   1.6 mph 91 % 0.0 in
22:53 5.8 °F 4.4 °F 1019.9 in Calm   1.6 mph 91 % 0.0 in
22:59 5.8 °F 4.4 °F 1019.9 in Calm   1.6 mph 91 % 0.0 in
23:05 5.8 °F 4.4 °F 1020.2 in Calm     91 % 0.0 in
23:15 5.7 °F 4.3 °F 1020.2 in Calm   1.6 mph 91 % 0.0 in
23:21 5.7 °F 4.3 °F 1020.2 in Calm   1.6 mph 91 % 0.0 in
23:27 5.8 °F 4.4 °F 1020.2 in Calm   1.6 mph 91 % 0.0 in
23:35 5.7 °F 4.3 °F 1020.2 in Calm     91 % 0.0 in
23:41 5.6 °F 4.2 °F 1020.2 in Calm     91 % 0.0 in
23:51 5.3 °F 4.0 °F 1020.2 in Calm     91 % 0.0 in
23:57 5.2 °F 4.0 °F 1020.2 in Calm     92 % 0.0 in
Meteo18
Compliments of Weather Underground - 4 mb

Script developed by  Jim McMurry - jmcmurry@mwt.net Adapted for the template by  Wim van der Kuil - Leuven-Template.eu

You find our weather info also at:

European Weather Network

Weather Underground

Equipment we use:

Weather-station
Davis Vue

Weather-program
Meteobridge

Weather-server
Raspberry PI 2 B+

Provider
1 and 1

Davis Vue

Meteobridge

Raspberry PI 2 B+

1 and 1